Time;durP1;ratioP1;P1;durP2;ratioP2;P2;SDS_P1;SDS_P2;PMS_P1;PMS_P2;Temp;Humidity;BMP_temperature;BMP_pressure;BME280_temperature;BME280_humidity;BME280_pressure;Samples;Min_cycle;Max_cycle;Signal;HPM_P1;HPM_P2
2021/11/23 10:30:21;;;;;;;18.17;11.90;;;14.60;82.60;;;;;;1958342;73;26261;-50
2021/11/23 10:32:55;;;;;;;20.57;11.93;;;14.50;82.90;;;;;;1917712;75;21094;-47
2021/11/23 10:35:26;;;;;;;21.57;12.75;;;14.50;82.80;;;;;;1917672;75;21054;-52
2021/11/23 10:37:55;;;;;;;21.60;13.13;;;14.60;82.90;;;;;;1917604;75;21054;-49
2021/11/23 10:40:28;;;;;;;20.05;13.85;;;14.60;82.90;;;;;;1917647;75;21081;-52
2021/11/23 10:43:04;;;;;;;13.40;9.68;;;14.60;82.90;;;;;;1917538;75;21078;-50
2021/11/23 10:45:39;;;;;;;16.17;12.23;;;14.60;82.80;;;;;;1917710;75;21090;-48
2021/11/23 10:48:10;;;;;;;23.30;13.38;;;14.70;82.80;;;;;;1916800;74;21562;-50
2021/11/23 10:50:41;;;;;;;16.95;12.13;;;14.70;82.70;;;;;;1917534;75;21054;-52
2021/11/23 10:53:16;;;;;;;19.07;13.95;;;14.70;82.70;;;;;;1917751;75;21028;-51
2021/11/23 10:55:45;;;;;;;;;;;14.70;82.70;;;;;;1920701;75;21441;-53
2021/11/23 10:58:14;;;;;;;18.15;12.47;;;14.70;82.50;;;;;;1917503;75;20144;-50
2021/11/23 11:00:47;;;;;;;18.40;12.73;;;14.70;82.50;;;;;;1917769;75;21066;-48
2021/11/23 11:03:17;;;;;;;19.60;12.85;;;14.70;82.40;;;;;;1917801;73;21011;-49
2021/11/23 11:05:47;;;;;;;21.60;14.05;;;14.70;82.30;;;;;;1917481;75;21022;-48
2021/11/23 11:08:19;;;;;;;17.90;12.50;;;14.70;82.40;;;;;;1917464;75;21031;-52
2021/11/23 11:10:48;;;;;;;18.32;13.10;;;14.70;82.50;;;;;;1917482;74;21026;-53
2021/11/23 11:13:21;;;;;;;19.37;14.93;;;14.70;82.50;;;;;;1917606;75;21086;-48
2021/11/23 11:15:56;;;;;;;22.93;13.43;;;14.70;82.60;;;;;;1917737;75;21484;-48
2021/11/23 11:18:26;;;;;;;20.97;13.98;;;14.70;82.50;;;;;;1917890;73;21074;-49
2021/11/23 11:21:02;;;;;;;23.90;13.83;;;14.70;82.50;;;;;;1917672;75;21003;-50
2021/11/23 11:23:37;;;;;;;17.80;14.23;;;14.70;82.60;;;;;;1917526;74;21109;-50
2021/11/23 11:26:25;;;;;;;17.17;13.05;;;14.70;82.70;;;;;;1917615;74;20995;-51
2021/11/23 11:28:57;;;;;;;18.48;12.93;;;14.70;82.70;;;;;;1915372;74;21105;-50
2021/11/23 11:31:40;;;;;;;20.05;14.73;;;14.70;82.50;;;;;;1905424;75;21051;-49
2021/11/23 11:34:33;;;;;;;20.65;14.40;;;14.70;82.60;;;;;;1902886;74;21095;-53
2021/11/23 11:37:11;;;;;;;20.97;14.50;;;14.70;82.70;;;;;;1905449;75;21071;-52
2021/11/23 11:39:43;;;;;;;18.82;12.13;;;14.70;82.50;;;;;;1905339;75;21039;-50
2021/11/23 11:42:15;;;;;;;22.67;14.90;;;14.70;82.40;;;;;;1904710;75;21547;-50
2021/11/23 11:44:48;;;;;;;21.90;14.13;;;14.70;82.30;;;;;;1845912;74;21465;-50
2021/11/23 11:47:19;;;;;;;18.77;13.70;;;14.70;82.50;;;;;;1904549;74;21485;-48
2021/11/23 11:50:02;;;;;;;21.07;13.43;;;14.70;82.50;;;;;;1904616;75;21093;-49
2021/11/23 11:52:30;;;;;;;17.07;13.20;;;14.70;82.70;;;;;;1902941;74;21078;-51
2021/11/23 11:55:20;;;;;;;22.32;14.13;;;14.60;82.60;;;;;;1904870;75;21071;-51
2021/11/23 11:57:51;;;;;;;27.00;15.58;;;14.60;82.60;;;;;;1904595;75;21121;-51
2021/11/23 12:00:31;;;;;;;21.07;14.40;;;14.60;82.60;;;;;;1903665;74;21561;-49
2021/11/23 12:03:13;;;;;;;21.45;14.40;;;14.60;82.90;;;;;;1904826;75;21533;-51
2021/11/23 12:05:58;;;;;;;21.70;14.90;;;14.60;82.80;;;;;;1904577;75;21059;-50
2021/11/23 12:08:29;;;;;;;20.20;13.95;;;14.60;83.00;;;;;;1904977;75;21039;-53
2021/11/23 12:11:00;;;;;;;28.27;15.32;;;14.60;82.80;;;;;;1904855;75;21004;-54
2021/11/23 12:13:44;;;;;;;24.43;15.03;;;14.60;82.80;;;;;;1904703;75;21105;-50
2021/11/23 12:16:21;;;;;;;22.60;15.08;;;14.60;82.90;;;;;;1904640;74;21150;-51
2021/11/23 12:19:10;;;;;;;19.42;13.08;;;14.60;83.00;;;;;;1904473;74;21070;-57
2021/11/23 12:21:52;;;;;;;29.32;15.80;;;14.60;82.90;;;;;;1904851;75;21043;-55
2021/11/23 12:24:30;;;;;;;23.65;14.95;;;14.60;82.80;;;;;;1905222;75;21012;-54
2021/11/23 12:27:11;;;;;;;26.90;16.62;;;14.60;82.90;;;;;;1905409;75;21054;-50
2021/11/23 12:29:40;;;;;;;26.12;15.65;;;14.50;82.70;;;;;;1904661;74;21532;-54
2021/11/23 12:32:10;;;;;;;22.73;14.87;;;14.50;82.70;;;;;;1905386;75;21027;-53
2021/11/23 12:34:51;;;;;;;22.75;15.40;;;14.40;82.70;;;;;;1905423;74;21043;-51
2021/11/23 12:37:21;;;;;;;26.82;16.30;;;14.30;82.70;;;;;;1904932;74;21043;-53
2021/11/23 12:39:54;;;;;;;26.27;16.45;;;14.30;82.80;;;;;;1904756;74;21457;-50
2021/11/23 12:42:22;;;;;;;24.85;17.17;;;14.30;82.80;;;;;;1905246;74;21019;-53
2021/11/23 12:44:51;;;;;;;23.70;14.78;;;14.20;82.90;;;;;;1905264;75;21011;-50
2021/11/23 12:47:22;;;;;;;21.80;15.40;;;14.20;83.00;;;;;;1905281;75;21003;-49
2021/11/23 12:49:59;;;;;;;23.65;15.75;;;14.20;83.00;;;;;;1905259;74;21035;-50
2021/11/23 12:52:30;;;;;;;23.77;14.50;;;14.20;83.00;;;;;;1905025;74;20988;-50
2021/11/23 12:54:59;;;;;;;30.15;17.23;;;14.10;82.70;;;;;;1905260;75;21538;-49
2021/11/23 12:57:29;;;;;;;22.30;15.68;;;14.10;82.90;;;;;;1905352;75;21051;-53
2021/11/23 13:00:03;;;;;;;21.70;14.73;;;14.10;82.80;;;;;;1905243;74;20995;-49
2021/11/23 13:02:40;;;;;;;24.85;17.12;;;14.10;82.90;;;;;;1905380;75;21059;-53
2021/11/23 13:05:15;;;;;;;24.92;15.65;;;14.10;82.90;;;;;;1905392;75;21052;-51
2021/11/23 13:07:53;;;;;;;23.83;15.38;;;14.10;83.00;;;;;;1905416;75;21023;-50
2021/11/23 13:10:25;;;;;;;27.07;17.98;;;14.10;83.00;;;;;;1905222;74;21039;-52
2021/11/23 13:12:56;;;;;;;24.55;15.55;;;14.00;83.00;;;;;;1905335;75;21077;-51
2021/11/23 13:15:28;;;;;;;47.23;29.25;;;14.00;83.10;;;;;;1904709;74;21015;-50
2021/11/23 13:18:06;;;;;;;23.10;15.63;;;14.00;83.20;;;;;;1905397;75;21061;-51
2021/11/23 13:20:44;;;;;;;21.10;15.30;;;14.00;83.30;;;;;;1905212;75;21109;-52
2021/11/23 13:23:23;;;;;;;25.45;16.12;;;14.00;83.30;;;;;;1905437;75;21140;-50
2021/11/23 13:26:14;;;;;;;29.60;17.92;;;13.90;83.40;;;;;;1905334;75;20979;-53
2021/11/23 13:28:49;;;;;;;24.98;17.87;;;13.90;83.50;;;;;;1905528;75;21097;-49
2021/11/23 13:31:25;;;;;;;22.58;15.55;;;13.90;83.60;;;;;;1904784;74;21607;-51
2021/11/23 13:34:00;;;;;;;23.77;16.12;;;13.80;83.60;;;;;;1905495;75;21059;-50
2021/11/23 13:36:42;;;;;;;22.22;16.50;;;13.80;83.70;;;;;;1905343;74;21027;-53
2021/11/23 13:39:14;;;;;;;27.37;16.93;;;13.70;83.60;;;;;;1905408;75;20983;-52
2021/11/23 13:41:46;;;;;;;25.43;16.97;;;13.60;83.80;;;;;;1905355;75;21070;-50
2021/11/23 13:44:31;;;;;;;22.02;15.25;;;13.60;83.80;;;;;;1905515;75;21430;-49
2021/11/23 13:47:01;;;;;;;;;;;13.50;83.70;;;;;;1908244;75;21020;-50
2021/11/23 13:49:43;;;;;;;23.15;16.23;;;13.50;83.70;;;;;;1905465;75;20378;-51
2021/11/23 13:52:15;;;;;;;20.40;15.53;;;13.40;83.70;;;;;;1905393;75;21085;-48
2021/11/23 13:54:52;;;;;;;16.97;13.90;;;13.40;83.80;;;;;;1905557;75;21104;-48
2021/11/23 13:57:24;;;;;;;26.20;13.35;;;13.30;83.80;;;;;;1905345;75;21015;-52
2021/11/23 13:59:55;;;;;;;20.92;15.25;;;13.30;82.70;;;;;;1905431;75;21035;-50
2021/11/23 14:02:55;;;;;;;21.45;15.83;;;13.20;82.70;;;;;;1905289;75;21089;-48
2021/11/23 14:05:39;;;;;;;21.20;16.02;;;13.20;82.40;;;;;;1905432;75;21047;-51
2021/11/23 14:08:16;;;;;;;23.90;17.02;;;13.10;82.30;;;;;;1905389;74;21109;-49
2021/11/23 14:10:52;;;;;;;24.45;17.48;;;13.00;82.40;;;;;;1904270;75;21015;-49
2021/11/23 14:13:23;;;;;;;24.52;16.12;;;13.00;82.30;;;;;;1905576;75;21031;-51
2021/11/23 14:15:55;;;;;;;25.25;15.30;;;12.90;82.60;;;;;;1905347;75;21004;-50
2021/11/23 14:18:27;;;;;;;23.77;15.25;;;12.90;82.40;;;;;;1905508;74;21066;-50
2021/11/23 14:20:59;;;;;;;25.20;15.95;;;12.80;82.40;;;;;;1892588;75;21011;-49
2021/11/23 14:23:44;;;;;;;26.20;16.27;;;12.80;82.40;;;;;;1905248;75;21055;-51
2021/11/23 14:26:24;;;;;;;25.65;16.10;;;12.80;82.50;;;;;;1905310;75;21514;-54
2021/11/23 14:28:56;;;;;;;22.50;16.05;;;12.70;82.40;;;;;;1905195;75;20980;-50
2021/11/23 14:31:31;;;;;;;28.32;15.93;;;12.70;82.60;;;;;;1901104;74;21059;-53
2021/11/23 14:34:04;;;;;;;22.73;16.37;;;12.70;82.70;;;;;;1905282;75;21097;-52
2021/11/23 14:36:52;;;;;;;22.37;15.58;;;12.70;82.80;;;;;;1905169;75;21531;-53
2021/11/23 14:39:23;;;;;;;22.27;15.72;;;12.60;82.70;;;;;;1905063;75;21150;-53
2021/11/23 14:41:53;;;;;;;21.17;14.25;;;12.60;82.70;;;;;;1905089;74;21023;-51
2021/11/23 14:44:23;;;;;;;20.08;13.65;;;12.50;82.40;;;;;;1905029;75;21097;-53
2021/11/23 14:46:55;;;;;;;26.00;15.45;;;12.50;82.50;;;;;;1905128;75;21023;-53
2021/11/23 14:49:24;;;;;;;20.30;15.58;;;12.50;82.60;;;;;;1905312;75;21035;-52
2021/11/23 14:51:54;;;;;;;22.65;13.95;;;12.50;82.80;;;;;;1905210;75;21004;-50
2021/11/23 14:54:23;;;;;;;20.97;13.85;;;12.40;82.70;;;;;;1892448;75;21078;-52
2021/11/23 14:56:52;;;;;;;23.75;15.30;;;12.40;82.80;;;;;;1905109;75;21011;-54
2021/11/23 14:59:22;;;;;;;24.47;15.70;;;12.40;83.00;;;;;;1905063;75;21011;-50
2021/11/23 15:01:53;;;;;;;24.98;15.65;;;12.30;83.20;;;;;;1905014;75;21089;-53
2021/11/23 15:04:22;;;;;;;24.90;14.63;;;12.20;83.30;;;;;;1905115;75;21003;-54
2021/11/23 15:06:52;;;;;;;21.02;15.20;;;12.20;83.40;;;;;;1905071;75;21011;-52
2021/11/23 15:09:23;;;;;;;22.87;14.98;;;12.20;83.50;;;;;;1905088;75;21008;-51
2021/11/23 15:11:52;;;;;;;22.10;14.85;;;12.20;83.80;;;;;;1905217;75;21078;-52
2021/11/23 15:14:23;;;;;;;24.00;16.23;;;12.10;83.70;;;;;;1905241;75;21012;-51
2021/11/23 15:16:53;;;;;;;32.67;20.23;;;12.00;84.00;;;;;;1905327;75;21039;-50
2021/11/23 15:19:24;;;;;;;36.75;22.13;;;12.00;84.30;;;;;;1905198;75;21082;-53
2021/11/23 15:21:55;;;;;;;44.90;26.50;;;11.90;84.80;;;;;;1905240;75;21047;-52
2021/11/23 15:24:25;;;;;;;37.55;22.25;;;11.90;85.40;;;;;;1905291;75;21141;-50
2021/11/23 15:26:55;;;;;;;36.53;22.02;;;11.90;85.70;;;;;;1905267;75;21043;-53
2021/11/23 15:29:28;;;;;;;49.08;27.27;;;11.80;86.00;;;;;;1905137;75;21081;-49
2021/11/23 15:32:00;;;;;;;57.35;31.30;;;11.70;86.40;;;;;;1914260;74;21057;-50
2021/11/23 15:34:30;;;;;;;51.55;28.80;;;11.70;87.80;;;;;;1924736;74;21015;-49
2021/11/23 15:37:01;;;;;;;62.80;35.28;;;11.70;88.00;;;;;;1924640;74;21026;-50
2021/11/23 15:39:31;;;;;;;47.90;27.22;;;11.60;88.10;;;;;;1924789;74;21139;-54
2021/11/23 15:42:03;;;;;;;45.08;24.65;;;11.50;87.50;;;;;;1924591;74;21124;-51
2021/11/23 15:44:33;;;;;;;39.58;24.02;;;11.50;88.40;;;;;;1877080;74;21026;-52
2021/11/23 15:47:06;;;;;;;47.05;25.17;;;11.40;88.80;;;;;;1924807;74;21003;-53
2021/11/23 15:49:35;;;;;;;37.33;22.40;;;11.40;89.40;;;;;;1924624;74;21131;-51
2021/11/23 15:52:05;;;;;;;40.80;24.70;;;11.30;89.30;;;;;;1877281;74;21043;-50
2021/11/23 15:54:34;;;;;;;37.38;22.02;;;11.30;89.00;;;;;;1904192;74;21084;-50
2021/11/23 15:57:07;;;;;;;40.20;22.70;;;11.20;89.50;;;;;;1924569;73;21392;-51
2021/11/23 15:59:37;;;;;;;50.12;24.70;;;11.20;89.70;;;;;;1924655;74;21057;-52
2021/11/23 16:02:11;;;;;;;39.50;20.57;;;11.10;90.20;;;;;;1924655;74;21601;-51
2021/11/23 16:04:41;;;;;;;32.40;17.90;;;11.10;90.00;;;;;;1924794;74;21046;-52
2021/11/23 16:07:10;;;;;;;24.18;12.55;;;11.00;90.00;;;;;;1924652;74;21030;-53
2021/11/23 16:09:40;;;;;;;31.65;16.07;;;11.00;90.30;;;;;;1924678;74;20991;-53
2021/11/23 16:12:11;;;;;;;28.38;14.80;;;10.90;90.10;;;;;;1924719;74;21050;-52
2021/11/23 16:14:41;;;;;;;20.62;11.75;;;10.80;90.20;;;;;;1904442;74;21039;-54
2021/11/23 16:17:12;;;;;;;17.20;11.48;;;10.70;90.30;;;;;;1924675;74;21034;-52
2021/11/23 16:19:43;;;;;;;20.92;13.62;;;10.60;90.30;;;;;;1924657;74;21491;-51
2021/11/23 16:22:15;;;;;;;22.45;12.90;;;10.60;90.50;;;;;;1924765;74;21184;-49
2021/11/23 16:24:46;;;;;;;23.77;12.75;;;10.50;90.30;;;;;;1924613;74;21003;-51
2021/11/23 16:27:15;;;;;;;47.00;20.05;;;10.50;90.70;;;;;;1924656;74;21022;-51
2021/11/23 16:29:50;;;;;;;73.80;28.07;;;10.50;90.60;;;;;;1903828;74;21092;-52
2021/11/23 16:32:19;;;;;;;;;;;10.40;90.70;;;;;;1927464;74;21058;-51
2021/11/23 16:34:51;;;;;;;25.30;13.38;;;10.30;90.70;;;;;;1924630;74;20382;-51
2021/11/23 16:37:24;;;;;;;19.35;9.85;;;10.30;90.50;;;;;;1924811;74;21035;-52
2021/11/23 16:39:55;;;;;;;21.65;11.00;;;10.20;90.20;;;;;;1924765;74;21018;-51
2021/11/23 16:42:26;;;;;;;23.55;11.63;;;10.00;90.20;;;;;;1924627;74;21034;-53
2021/11/23 16:44:57;;;;;;;14.93;9.35;;;9.90;90.40;;;;;;1924730;74;21042;-50
2021/11/23 16:47:29;;;;;;;16.32;8.28;;;9.80;90.30;;;;;;1924646;74;21104;-50
2021/11/23 16:49:58;;;;;;;10.08;5.05;;;9.70;90.10;;;;;;1924784;74;21050;-52
2021/11/23 16:52:32;;;;;;;11.05;6.40;;;9.60;90.00;;;;;;1924723;74;21019;-52
2021/11/23 16:55:02;;;;;;;11.15;6.65;;;9.60;90.10;;;;;;1903895;74;21030;-52
2021/11/23 16:57:34;;;;;;;20.82;9.50;;;9.50;90.20;;;;;;1924643;74;21138;-50
2021/11/23 17:00:13;;;;;;;18.73;9.58;;;9.40;90.20;;;;;;1924673;74;21092;-51
2021/11/23 17:02:45;;;;;;;11.90;7.30;;;9.40;90.10;;;;;;1924612;74;20987;-49
2021/11/23 17:05:16;;;;;;;8.78;6.15;;;9.40;90.10;;;;;;1924628;74;21003;-50
2021/11/23 17:07:49;;;;;;;9.75;5.62;;;9.40;90.00;;;;;;1924688;74;21010;-51
2021/11/23 17:10:19;;;;;;;12.03;4.15;;;9.30;89.60;;;;;;1924875;74;21088;-50
2021/11/23 17:12:49;;;;;;;6.10;3.70;;;9.30;89.90;;;;;;1924646;74;21019;-51
2021/11/23 17:15:19;;;;;;;7.58;4.40;;;9.20;89.80;;;;;;1924619;74;21076;-52
2021/11/23 17:17:51;;;;;;;6.92;5.05;;;9.20;89.80;;;;;;1924680;74;20991;-51
2021/11/23 17:20:21;;;;;;;4.30;3.33;;;9.10;90.00;;;;;;1924649;74;21054;-52
2021/11/23 17:22:52;;;;;;;7.47;4.28;;;9.10;90.00;;;;;;1924635;74;21027;-51
2021/11/23 17:25:21;;;;;;;6.97;4.55;;;9.00;89.70;;;;;;1924626;74;20991;-52
2021/11/23 17:27:54;;;;;;;7.72;5.30;;;9.00;90.00;;;;;;1924730;74;21064;-53
2021/11/23 17:30:23;;;;;;;7.42;4.87;;;9.00;90.00;;;;;;1924459;74;21542;-53
2021/11/23 17:33:01;;;;;;;5.60;3.55;;;8.90;89.50;;;;;;1924661;74;21049;-50
2021/11/23 17:35:35;;;;;;;7.83;5.70;;;8.90;89.70;;;;;;1924487;74;21067;-50
2021/11/23 17:38:07;;;;;;;6.72;5.28;;;8.80;89.80;;;;;;1924617;74;21120;-50
2021/11/23 17:40:39;;;;;;;6.90;5.47;;;8.70;89.70;;;;;;1924518;74;21019;-51
2021/11/23 17:43:14;;;;;;;6.47;5.07;;;8.70;89.90;;;;;;1923709;74;21043;-52
2021/11/23 17:45:46;;;;;;;7.37;6.30;;;8.70;89.70;;;;;;1903957;74;21034;-50
2021/11/23 17:48:17;;;;;;;9.53;7.30;;;8.70;89.80;;;;;;1924646;74;21043;-50
2021/11/23 17:50:47;;;;;;;7.62;5.72;;;8.70;89.90;;;;;;1924596;74;21078;-51
2021/11/23 17:53:17;;;;;;;9.65;6.15;;;8.70;89.90;;;;;;1924668;74;21124;-52
2021/11/23 17:55:50;;;;;;;9.60;6.50;;;8.70;89.90;;;;;;1924702;74;21043;-53
2021/11/23 17:58:19;;;;;;;6.85;4.42;;;8.70;89.80;;;;;;1924787;74;21069;-52
2021/11/23 18:00:54;;;;;;;8.00;5.87;;;8.70;90.00;;;;;;1924718;74;21084;-51
2021/11/23 18:03:28;;;;;;;8.00;5.75;;;8.80;89.70;;;;;;1903899;74;21031;-52
2021/11/23 18:06:00;;;;;;;7.22;4.95;;;8.80;89.70;;;;;;1924554;74;21042;-50
2021/11/23 18:08:34;;;;;;;6.17;4.03;;;8.80;89.70;;;;;;1903699;74;20999;-50
2021/11/23 18:11:05;;;;;;;10.10;6.37;;;8.70;88.90;;;;;;1924679;74;21011;-49
2021/11/23 18:13:39;;;;;;;6.90;5.22;;;8.60;89.00;;;;;;1904186;74;20979;-53
2021/11/23 18:16:12;;;;;;;7.90;4.50;;;8.60;89.20;;;;;;1924724;74;21047;-50
2021/11/23 18:18:46;;;;;;;7.78;5.03;;;8.50;89.10;;;;;;1924748;74;21065;-52
2021/11/23 18:21:19;;;;;;;8.05;5.78;;;8.40;89.20;;;;;;1904498;74;21167;-49
2021/11/23 18:23:49;;;;;;;7.72;4.37;;;8.40;89.20;;;;;;1924795;74;21023;-51
2021/11/23 18:26:22;;;;;;;6.25;5.15;;;8.30;89.20;;;;;;1924634;74;21047;-51
2021/11/23 18:28:52;;;;;;;10.93;5.30;;;8.30;89.30;;;;;;1924829;74;21069;-50
2021/11/23 18:31:25;;;;;;;11.12;5.20;;;8.30;89.40;;;;;;1924708;74;20998;-50
2021/11/23 18:33:59;;;;;;;11.55;6.25;;;8.30;89.50;;;;;;1923559;74;21079;-50
2021/11/23 18:36:30;;;;;;;8.23;5.72;;;8.20;89.40;;;;;;1924833;74;21487;-50
2021/11/23 18:39:04;;;;;;;5.92;3.98;;;8.20;89.30;;;;;;1924831;74;21023;-50
2021/11/23 18:41:35;;;;;;;4.22;3.10;;;8.20;89.10;;;;;;1924668;74;20983;-54
2021/11/23 18:44:09;;;;;;;9.90;5.08;;;8.20;88.80;;;;;;1904053;74;21084;-50
2021/11/23 18:46:42;;;;;;;8.13;4.90;;;8.20;88.80;;;;;;1904122;74;21007;-51
2021/11/23 18:49:16;;;;;;;7.05;4.80;;;8.20;89.10;;;;;;1924662;74;20974;-52
2021/11/23 18:51:49;;;;;;;8.28;4.33;;;8.20;88.90;;;;;;1924564;74;21105;-54
2021/11/23 18:54:21;;;;;;;6.47;3.83;;;8.10;88.80;;;;;;1924505;74;21072;-53
2021/11/23 18:56:53;;;;;;;8.10;4.87;;;8.10;88.60;;;;;;1924689;74;21060;-52
2021/11/23 18:59:25;;;;;;;6.45;4.28;;;8.10;88.60;;;;;;1924720;74;21067;-51
2021/11/23 19:01:54;;;;;;;10.40;4.55;;;8.10;88.80;;;;;;1924826;74;21019;-51
2021/11/23 19:04:23;;;;;;;6.47;3.42;;;8.10;89.00;;;;;;1924636;74;21075;-52
2021/11/23 19:07:00;;;;;;;6.37;3.67;;;8.10;88.80;;;;;;1924745;74;21035;-50
2021/11/23 19:09:33;;;;;;;6.12;4.28;;;8.10;89.00;;;;;;1925006;74;21073;-50
2021/11/23 19:12:04;;;;;;;;;;;8.10;88.90;;;;;;1927461;74;21077;-52
2021/11/23 19:14:34;;;;;;;5.40;3.50;;;8.00;88.90;;;;;;1924824;74;20110;-50
2021/11/23 19:17:06;;;;;;;4.35;3.27;;;8.10;88.60;;;;;;1924893;74;21104;-52
2021/11/23 19:19:36;;;;;;;5.90;3.90;;;8.10;88.50;;;;;;1904072;74;21026;-51
2021/11/23 19:22:06;;;;;;;7.25;4.33;;;8.10;88.50;;;;;;1924700;74;21027;-50
2021/11/23 19:24:36;;;;;;;6.85;3.30;;;8.10;88.70;;;;;;1924704;74;21112;-50
2021/11/23 19:27:06;;;;;;;4.83;3.42;;;8.10;88.70;;;;;;1924718;74;21019;-51
2021/11/23 19:29:35;;;;;;;6.85;4.40;;;8.10;88.40;;;;;;1877526;74;21027;-51
2021/11/23 19:32:07;;;;;;;8.73;5.17;;;8.10;88.80;;;;;;1903909;74;21011;-50
2021/11/23 19:34:36;;;;;;;8.33;4.78;;;8.10;89.00;;;;;;1911753;74;21055;-53
2021/11/23 19:37:08;;;;;;;9.95;5.30;;;8.10;89.00;;;;;;1905291;75;21116;-50
2021/11/23 19:39:38;;;;;;;8.90;5.28;;;8.10;89.10;;;;;;1905302;74;21066;-50
2021/11/23 19:42:08;;;;;;;10.20;5.28;;;8.10;89.10;;;;;;1905244;74;21116;-51
2021/11/23 19:44:38;;;;;;;8.50;5.03;;;8.20;89.20;;;;;;1905279;75;21039;-50
2021/11/23 19:47:08;;;;;;;10.80;4.80;;;8.20;89.00;;;;;;1905305;75;21007;-49
2021/11/23 19:49:37;;;;;;;8.93;4.10;;;8.10;88.80;;;;;;1905311;75;21055;-53
2021/11/23 19:52:07;;;;;;;8.93;4.35;;;8.10;88.90;;;;;;1905238;75;21074;-51
2021/11/23 19:54:41;;;;;;;10.10;5.70;;;8.00;88.80;;;;;;1905242;75;21075;-52
2021/11/23 19:57:12;;;;;;;9.18;4.85;;;8.00;89.00;;;;;;1905175;74;21125;-51
2021/11/23 19:59:42;;;;;;;11.18;5.90;;;8.00;89.10;;;;;;1892393;75;21069;-50
2021/11/23 20:02:11;;;;;;;7.10;4.83;;;8.00;89.30;;;;;;1866227;75;20999;-51
2021/11/23 20:04:42;;;;;;;8.13;4.17;;;8.00;89.10;;;;;;1905236;74;21073;-49
2021/11/23 20:07:11;;;;;;;6.90;4.10;;;8.00;89.00;;;;;;1905356;75;21058;-50
2021/11/23 20:09:42;;;;;;;6.15;3.85;;;7.90;89.10;;;;;;1905200;75;21023;-50
2021/11/23 20:12:11;;;;;;;6.75;4.40;;;8.00;89.10;;;;;;1905380;75;21070;-50
2021/11/23 20:14:41;;;;;;;6.22;3.80;;;7.90;89.00;;;;;;1892568;75;21081;-50
2021/11/23 20:17:10;;;;;;;6.60;3.98;;;7.90;89.00;;;;;;1905396;75;21065;-51
2021/11/23 20:19:40;;;;;;;5.85;4.05;;;7.90;89.10;;;;;;1905274;74;21024;-52
2021/11/23 20:22:09;;;;;;;6.40;3.92;;;7.90;89.20;;;;;;1905254;75;21023;-51
2021/11/23 20:24:39;;;;;;;7.00;3.87;;;7.90;88.90;;;;;;1905370;75;21079;-49
2021/11/23 20:27:08;;;;;;;4.92;3.80;;;7.90;89.10;;;;;;1905380;75;21103;-50
2021/11/23 20:29:38;;;;;;;4.62;3.02;;;7.90;88.80;;;;;;1905271;75;21019;-49
2021/11/23 20:32:07;;;;;;;6.72;4.03;;;7.80;88.90;;;;;;1905321;75;21141;-49
2021/11/23 20:34:40;;;;;;;5.08;3.42;;;7.80;88.90;;;;;;1913326;74;21054;-49
2021/11/23 20:37:08;;;;;;;4.28;3.00;;;7.90;89.20;;;;;;1924614;74;21058;-51
2021/11/23 20:39:38;;;;;;;5.15;3.30;;;7.90;89.40;;;;;;1924745;74;21006;-52
2021/11/23 20:42:08;;;;;;;7.40;3.75;;;7.90;89.30;;;;;;1924742;74;21053;-49
2021/11/23 20:44:38;;;;;;;7.20;4.60;;;7.90;88.90;;;;;;1924732;74;21086;-50
2021/11/23 20:47:07;;;;;;;6.08;4.03;;;7.90;89.40;;;;;;1924707;74;21043;-49
2021/11/23 20:49:38;;;;;;;5.25;3.85;;;8.00;89.40;;;;;;1924638;74;21042;-52
2021/11/23 20:52:08;;;;;;;10.20;4.97;;;8.00;89.20;;;;;;1924646;74;21597;-49
2021/11/23 20:54:38;;;;;;;7.90;4.83;;;8.10;89.40;;;;;;1924653;74;20979;-50
2021/11/23 20:57:07;;;;;;;7.12;4.08;;;8.10;89.60;;;;;;1924724;74;21075;-50
2021/11/23 20:59:36;;;;;;;7.50;4.75;;;8.20;89.70;;;;;;1924751;74;21007;-50
2021/11/23 21:02:07;;;;;;;7.35;3.92;;;8.20;89.20;;;;;;1924744;74;21100;-51
2021/11/23 21:04:37;;;;;;;6.75;4.55;;;8.20;89.40;;;;;;1924703;74;21328;-50
2021/11/23 21:07:07;;;;;;;6.67;4.17;;;8.30;89.30;;;;;;1924689;74;21072;-50
2021/11/23 21:09:37;;;;;;;7.17;4.12;;;8.30;89.10;;;;;;1924655;74;21038;-50
2021/11/23 21:12:06;;;;;;;6.45;4.67;;;8.30;89.30;;;;;;1924695;74;21072;-53
2021/11/23 21:14:36;;;;;;;8.28;4.55;;;8.30;89.20;;;;;;1924736;74;21035;-50
2021/11/23 21:17:05;;;;;;;9.35;4.92;;;8.30;88.90;;;;;;1924660;74;21007;-49
2021/11/23 21:19:35;;;;;;;8.28;4.47;;;8.20;88.30;;;;;;1924749;74;21113;-50
2021/11/23 21:22:04;;;;;;;7.87;3.62;;;8.20;89.10;;;;;;1924633;74;20983;-50
2021/11/23 21:24:33;;;;;;;6.03;4.37;;;8.20;89.30;;;;;;1924647;74;21003;-50
2021/11/23 21:27:03;;;;;;;5.40;3.72;;;8.20;89.30;;;;;;1924767;74;21011;-53
2021/11/23 21:29:32;;;;;;;4.05;2.83;;;8.20;89.00;;;;;;1924650;74;21050;-50
2021/11/23 21:32:01;;;;;;;4.33;3.17;;;8.10;88.30;;;;;;1924657;74;21064;-50
2021/11/23 21:34:31;;;;;;;5.97;3.90;;;8.10;88.10;;;;;;1924624;74;21477;-50
2021/11/23 21:37:11;;;;;;;6.25;3.92;;;8.00;88.60;;;;;;1924663;74;21088;-51
2021/11/23 21:39:32;;;;;;;5.62;3.85;;;8.00;88.10;;;;;;1923300;74;21038;-51
2021/11/23 21:42:01;;;;;;;6.50;3.55;;;7.90;88.70;;;;;;1924849;74;20987;-51
2021/11/23 21:44:34;;;;;;;6.83;3.62;;;7.90;88.80;;;;;;1924628;74;21064;-49
2021/11/23 21:47:02;;;;;;;5.45;3.90;;;7.90;88.30;;;;;;1924430;74;21089;-49
2021/11/23 21:49:31;;;;;;;6.53;3.70;;;7.90;88.20;;;;;;1924745;74;21087;-51
2021/11/23 21:52:00;;;;;;;5.72;3.95;;;7.90;88.30;;;;;;1924684;74;21072;-52
2021/11/23 21:54:29;;;;;;;5.90;4.12;;;7.90;88.40;;;;;;1924625;74;21003;-51
2021/11/23 21:56:59;;;;;;;9.73;4.55;;;7.90;88.50;;;;;;1924639;74;20979;-49
2021/11/23 21:59:28;;;;;;;7.45;4.40;;;7.90;88.80;;;;;;1924622;74;21042;-51
2021/11/23 22:01:57;;;;;;;6.92;4.58;;;7.90;89.50;;;;;;1924731;74;21058;-51
2021/11/23 22:04:27;;;;;;;4.78;2.90;;;7.90;88.20;;;;;;1924737;74;21116;-50
2021/11/23 22:06:56;;;;;;;6.78;4.60;;;8.00;88.40;;;;;;1924745;74;21481;-51
2021/11/23 22:09:28;;;;;;;7.78;4.12;;;7.90;87.40;;;;;;1924698;74;21007;-50
2021/11/23 22:11:57;;;;;;;7.55;4.85;;;7.90;88.00;;;;;;1924580;74;21920;-50
2021/11/23 22:14:28;;;;;;;8.28;4.90;;;7.80;88.00;;;;;;1924675;74;20987;-50
2021/11/23 22:16:57;;;;;;;8.28;4.97;;;7.80;88.40;;;;;;1924647;74;21496;-50
2021/11/23 22:19:27;;;;;;;9.00;4.85;;;7.80;88.00;;;;;;1924702;74;21066;-51
2021/11/23 22:21:56;;;;;;;10.90;5.47;;;7.80;88.10;;;;;;1924681;74;21101;-50
2021/11/23 22:24:26;;;;;;;7.33;4.62;;;7.70;87.20;;;;;;1924554;74;20983;-51
2021/11/23 22:26:55;;;;;;;7.65;4.55;;;7.60;87.50;;;;;;1924711;74;21011;-49
2021/11/23 22:29:25;;;;;;;8.83;5.08;;;7.60;88.00;;;;;;1924701;74;21010;-50
2021/11/23 22:31:54;;;;;;;8.15;4.72;;;7.60;88.40;;;;;;1924603;74;21076;-51
2021/11/23 22:34:23;;;;;;;6.80;4.83;;;7.60;88.00;;;;;;1924549;74;21064;-52
2021/11/23 22:36:55;;;;;;;7.87;5.08;;;7.50;88.10;;;;;;1908013;74;21060;-51
2021/11/23 22:39:24;;;;;;;10.88;5.58;;;7.50;88.20;;;;;;1905459;75;21125;-52
2021/11/23 22:41:53;;;;;;;11.10;6.17;;;7.60;88.20;;;;;;1905279;75;21085;-50
2021/11/23 22:44:23;;;;;;;11.00;5.85;;;7.50;88.20;;;;;;1905225;75;21016;-50
2021/11/23 22:46:52;;;;;;;10.95;6.83;;;7.50;88.30;;;;;;1905342;75;21058;-50
2021/11/23 22:49:21;;;;;;;11.93;7.42;;;7.50;88.30;;;;;;1905206;75;21004;-54
2021/11/23 22:51:51;;;;;;;14.10;7.72;;;7.60;88.50;;;;;;1905327;75;21097;-50
2021/11/23 22:54:21;;;;;;;12.75;8.28;;;7.60;88.50;;;;;;1905277;75;20988;-50
2021/11/23 22:56:51;;;;;;;13.90;8.03;;;7.60;88.90;;;;;;1905394;75;21073;-50
2021/11/23 22:59:21;;;;;;;13.75;7.72;;;7.60;88.50;;;;;;1905276;74;21039;-50
2021/11/23 23:01:51;;;;;;;10.88;7.42;;;7.60;88.20;;;;;;1905284;75;21075;-53
2021/11/23 23:04:20;;;;;;;11.73;6.83;;;7.60;88.10;;;;;;1905176;75;21003;-51
2021/11/23 23:06:50;;;;;;;11.45;7.00;;;7.60;88.30;;;;;;1905186;75;20999;-51
2021/11/23 23:09:19;;;;;;;9.78;5.97;;;7.50;87.90;;;;;;1905276;75;21015;-50
2021/11/23 23:11:49;;;;;;;7.47;4.83;;;7.40;87.80;;;;;;1905222;75;21051;-51
2021/11/23 23:14:18;;;;;;;8.78;5.50;;;7.40;87.70;;;;;;1905126;75;21059;-49
2021/11/23 23:16:48;;;;;;;12.23;7.17;;;7.40;87.80;;;;;;1905283;75;21011;-52
2021/11/23 23:19:17;;;;;;;12.18;6.22;;;7.40;88.10;;;;;;1905130;75;21312;-51
2021/11/23 23:21:47;;;;;;;8.10;4.67;;;7.40;88.40;;;;;;1905153;75;20988;-51
2021/11/23 23:24:16;;;;;;;9.08;5.22;;;7.30;87.50;;;;;;1905155;75;21011;-51
2021/11/23 23:26:52;;;;;;;8.75;4.53;;;7.30;87.20;;;;;;1905174;75;21016;-51
2021/11/23 23:29:18;;;;;;;10.72;5.75;;;7.10;87.10;;;;;;1904653;74;21395;-51
2021/11/23 23:31:48;;;;;;;7.05;4.72;;;7.10;87.50;;;;;;1905176;75;21050;-50
2021/11/23 23:34:17;;;;;;;5.35;3.20;;;7.00;87.60;;;;;;1905101;75;21101;-51
2021/11/23 23:36:46;;;;;;;11.33;6.42;;;7.00;88.60;;;;;;1905277;75;21109;-50